Time;durP1;ratioP1;P1;durP2;ratioP2;P2;SDS_P1;SDS_P2;PMS_P1;PMS_P2;Temp;Humidity;BMP_temperature;BMP_pressure;BME280_temperature;BME280_humidity;BME280_pressure;Samples;Min_cycle;Max_cycle;Signal;HPM_P1;HPM_P2
2023/04/11 00:02:11;;;;;;;6.95;5.15;;;11.80;99.90;;;;;;5108692;28;20023;-38
2023/04/11 00:04:37;;;;;;;7.30;4.95;;;11.70;99.90;;;;;;5108834;28;20024;-38
2023/04/11 00:07:04;;;;;;;6.93;4.50;;;11.60;99.90;;;;;;5112338;27;20016;-38
2023/04/11 00:09:30;;;;;;;7.68;5.18;;;11.60;99.90;;;;;;5110786;27;20072;-38
2023/04/11 00:11:56;;;;;;;9.15;5.75;;;11.50;99.90;;;;;;5108165;28;20011;-38
2023/04/11 00:14:22;;;;;;;10.30;6.18;;;11.50;99.90;;;;;;5114049;27;20029;-38
2023/04/11 00:16:48;;;;;;;6.90;5.13;;;11.40;99.90;;;;;;5110431;27;20031;-38
2023/04/11 00:19:15;;;;;;;8.68;6.40;;;11.30;99.90;;;;;;5090042;28;20251;-39
2023/04/11 00:21:40;;;;;;;8.70;6.25;;;11.30;99.90;;;;;;5108564;28;20077;-40
2023/04/11 00:24:09;;;;;;;8.85;6.15;;;11.20;99.90;;;;;;5108360;28;20427;-38
2023/04/11 00:26:34;;;;;;;8.07;6.05;;;11.20;99.90;;;;;;5089229;28;20056;-39
2023/04/11 00:29:00;;;;;;;10.98;6.57;;;11.10;99.90;;;;;;5112386;28;20015;-39
2023/04/11 00:31:26;;;;;;;9.45;6.63;;;11.00;99.90;;;;;;5109886;28;20057;-39
2023/04/11 00:33:51;;;;;;;11.38;7.13;;;10.90;99.90;;;;;;5112269;28;20019;-39
2023/04/11 00:36:17;;;;;;;9.43;6.70;;;10.90;99.90;;;;;;5112197;28;20023;-39
2023/04/11 00:38:43;;;;;;;11.02;6.85;;;10.90;99.90;;;;;;5093456;28;20389;-39
2023/04/11 00:41:09;;;;;;;10.98;6.88;;;10.90;99.90;;;;;;5089221;28;20064;-39
2023/04/11 00:43:35;;;;;;;8.48;6.13;;;10.80;99.90;;;;;;5112212;28;20031;-39
2023/04/11 00:46:01;;;;;;;8.48;6.13;;;10.70;99.90;;;;;;5110611;28;20015;-39
2023/04/11 00:48:27;;;;;;;9.57;6.40;;;10.60;99.90;;;;;;5107937;28;20515;-39
2023/04/11 00:50:53;;;;;;;8.30;6.05;;;10.50;99.90;;;;;;5109207;28;20020;-38
2023/04/11 00:53:20;;;;;;;11.80;6.25;;;10.50;99.90;;;;;;5120489;27;20024;-38
2023/04/11 00:55:45;;;;;;;10.77;6.88;;;10.40;99.90;;;;;;5089954;28;20012;-39
2023/04/11 00:58:12;;;;;;;14.73;7.97;;;10.40;99.90;;;;;;5109982;28;20061;-38
2023/04/11 01:00:37;;;;;;;11.45;8.07;;;10.30;99.90;;;;;;5112908;27;20564;-39
2023/04/11 01:03:03;;;;;;;10.02;7.03;;;10.20;99.90;;;;;;5112029;28;20075;-38
2023/04/11 01:05:31;;;;;;;15.60;8.32;;;10.20;99.90;;;;;;5112146;28;20111;-38
2023/04/11 01:07:57;;;;;;;12.27;7.88;;;10.20;99.90;;;;;;5112343;28;20401;-45
2023/04/11 01:10:24;;;;;;;12.65;7.57;;;10.10;99.90;;;;;;5111999;28;20134;-38
2023/04/11 01:12:50;;;;;;;10.82;7.32;;;10.10;99.90;;;;;;5115669;27;20034;-38
2023/04/11 01:15:16;;;;;;;12.75;8.43;;;10.10;99.90;;;;;;5113807;27;20023;-42
2023/04/11 01:17:42;;;;;;;15.60;8.93;;;10.20;99.90;;;;;;5115390;27;20038;-38
2023/04/11 01:20:08;;;;;;;14.85;7.65;;;10.20;99.90;;;;;;5113651;27;20511;-38
2023/04/11 01:22:36;;;;;;;12.27;7.95;;;10.20;99.90;;;;;;5111420;28;20035;-38
2023/04/11 01:25:02;;;;;;;10.50;7.45;;;10.20;99.90;;;;;;5093369;28;20223;-38
2023/04/11 01:27:28;;;;;;;11.35;7.40;;;10.20;99.90;;;;;;5114544;27;20023;-38
2023/04/11 01:29:53;;;;;;;11.40;7.75;;;10.20;99.90;;;;;;5113269;27;20012;-38
2023/04/11 01:32:19;;;;;;;13.23;7.97;;;10.20;99.90;;;;;;5115034;27;20378;-38
2023/04/11 01:34:47;;;;;;;9.70;6.97;;;10.10;99.90;;;;;;5094933;28;20023;-38
2023/04/11 01:37:12;;;;;;;15.27;8.00;;;10.10;99.90;;;;;;5093005;28;20533;-38
2023/04/11 01:39:38;;;;;;;10.73;7.70;;;10.10;99.90;;;;;;5111483;28;20043;-38
2023/04/11 01:42:05;;;;;;;12.73;8.68;;;10.10;99.90;;;;;;5096410;27;20012;-38
2023/04/11 01:44:33;;;;;;;12.80;8.05;;;10.10;99.90;;;;;;5113081;27;20035;-38
2023/04/11 01:47:00;;;;;;;11.02;8.00;;;10.10;99.90;;;;;;5111197;28;20016;-37
2023/04/11 01:49:25;;;;;;;11.85;7.63;;;10.10;99.90;;;;;;5094313;28;20023;-37
2023/04/11 01:51:51;;;;;;;13.45;7.80;;;10.10;99.90;;;;;;5114953;27;20019;-37
2023/04/11 01:54:16;;;;;;;13.10;7.65;;;10.10;99.90;;;;;;5111251;28;20557;-38
2023/04/11 01:56:42;;;;;;;9.57;7.20;;;10.10;99.90;;;;;;5111336;27;20028;-39
2023/04/11 01:59:08;;;;;;;11.05;7.50;;;10.00;99.90;;;;;;5115783;27;20532;-38
2023/04/11 02:01:34;;;;;;;12.20;7.65;;;10.00;99.90;;;;;;5109887;27;20046;-38
2023/04/11 02:04:00;;;;;;;12.73;7.88;;;10.10;99.90;;;;;;5114050;27;20190;-38
2023/04/11 02:06:26;;;;;;;11.13;7.32;;;10.10;99.90;;;;;;5110855;27;20545;-38
2023/04/11 02:08:52;;;;;;;13.48;7.70;;;10.00;99.90;;;;;;5113784;27;20026;-38
2023/04/11 02:11:17;;;;;;;13.93;7.35;;;10.00;99.90;;;;;;5112548;27;20468;-38
2023/04/11 02:13:43;;;;;;;8.85;6.60;;;9.90;99.90;;;;;;5113009;27;20027;-38
2023/04/11 02:16:13;;;;;;;9.05;6.13;;;10.00;99.90;;;;;;5112189;27;20029;-38
2023/04/11 02:18:40;;;;;;;11.70;6.15;;;9.90;99.90;;;;;;5110104;28;20026;-39
2023/04/11 02:21:05;;;;;;;9.10;5.95;;;9.90;99.90;;;;;;5110680;28;20365;-39
2023/04/11 02:23:31;;;;;;;8.43;5.80;;;9.80;99.90;;;;;;5110377;28;20338;-38
2023/04/11 02:25:57;;;;;;;9.80;6.05;;;9.80;99.90;;;;;;5109894;28;20370;-38
2023/04/11 02:28:22;;;;;;;8.82;6.55;;;9.80;99.90;;;;;;5112906;27;20432;-38
2023/04/11 02:30:48;;;;;;;10.73;6.53;;;9.80;99.90;;;;;;5108939;28;20114;-39
2023/04/11 02:33:14;;;;;;;11.57;6.70;;;9.70;99.90;;;;;;5108025;28;20034;-38
2023/04/11 02:35:40;;;;;;;10.48;6.28;;;9.70;99.90;;;;;;5109516;28;20392;-46
2023/04/11 02:38:06;;;;;;;7.70;5.97;;;9.70;99.90;;;;;;5113260;27;20114;-38
2023/04/11 02:40:31;;;;;;;14.27;7.07;;;9.60;99.90;;;;;;5110289;27;20547;-38
2023/04/11 02:42:57;;;;;;;14.15;7.03;;;9.60;99.90;;;;;;5111886;27;20024;-38
2023/04/11 02:45:22;;;;;;;9.02;6.47;;;9.50;99.90;;;;;;5093855;28;20030;-38
2023/04/11 02:47:48;;;;;;;12.57;5.82;;;9.50;99.90;;;;;;5113259;27;20454;-38
2023/04/11 02:50:14;;;;;;;11.90;6.57;;;9.50;99.90;;;;;;5109784;27;20020;-38
2023/04/11 02:52:41;;;;;;;8.73;5.55;;;9.50;99.90;;;;;;5109607;28;20035;-38
2023/04/11 02:55:07;;;;;;;8.95;6.07;;;9.50;99.90;;;;;;5111781;27;20031;-38
2023/04/11 02:57:33;;;;;;;8.90;6.38;;;9.50;99.90;;;;;;5110039;27;20020;-39
2023/04/11 02:59:58;;;;;;;12.13;6.75;;;9.50;99.90;;;;;;5109568;28;20131;-38
2023/04/11 03:02:24;;;;;;;11.15;6.95;;;9.50;99.90;;;;;;5109897;27;20054;-38
2023/04/11 03:04:50;;;;;;;10.85;6.72;;;9.40;99.90;;;;;;5111871;27;20067;-39
2023/04/11 03:07:15;;;;;;;12.98;7.50;;;9.40;99.90;;;;;;5109251;28;20106;-38
2023/04/11 03:09:41;;;;;;;11.18;6.72;;;9.40;99.90;;;;;;5090548;28;20026;-39
2023/04/11 03:12:06;;;;;;;10.48;7.05;;;9.40;99.90;;;;;;5109971;27;20020;-38
2023/04/11 03:14:32;;;;;;;13.05;7.32;;;9.40;99.90;;;;;;5110723;27;20019;-38
2023/04/11 03:16:57;;;;;;;10.52;7.40;;;9.40;99.90;;;;;;5109596;27;20043;-39
2023/04/11 03:19:23;;;;;;;10.90;6.97;;;9.40;99.90;;;;;;5111823;27;20019;-39
2023/04/11 03:21:48;;;;;;;11.18;6.75;;;9.50;99.90;;;;;;5108937;28;20601;-39
2023/04/11 03:24:14;;;;;;;11.05;6.45;;;9.40;99.90;;;;;;5108017;28;20040;-38
2023/04/11 03:26:39;;;;;;;10.82;6.30;;;9.40;99.90;;;;;;5091696;28;20020;-39
2023/04/11 03:29:05;;;;;;;10.32;6.28;;;9.50;99.90;;;;;;5111921;27;20020;-39
2023/04/11 03:31:30;;;;;;;8.45;6.28;;;9.50;99.90;;;;;;5110244;27;20473;-38
2023/04/11 03:33:58;;;;;;;10.60;5.35;;;9.50;99.90;;;;;;5109528;28;20052;-38
2023/04/11 03:36:25;;;;;;;9.75;5.25;;;9.40;99.90;;;;;;5109537;28;20318;-38
2023/04/11 03:38:51;;;;;;;7.43;4.97;;;9.40;99.90;;;;;;5108779;28;20114;-38
2023/04/11 03:41:18;;;;;;;6.22;4.60;;;9.40;99.90;;;;;;5109497;28;20149;-39
2023/04/11 03:43:44;;;;;;;7.10;4.68;;;9.50;99.90;;;;;;5108929;27;20020;-38
2023/04/11 03:46:10;;;;;;;8.32;4.60;;;9.40;99.90;;;;;;5111799;27;20106;-38
2023/04/11 03:48:35;;;;;;;6.18;4.45;;;9.40;99.90;;;;;;5108716;28;20153;-38
2023/04/11 03:51:01;;;;;;;6.60;4.43;;;9.40;99.90;;;;;;5109351;28;20012;-37
2023/04/11 03:53:27;;;;;;;8.18;4.55;;;9.40;99.90;;;;;;5107957;28;20545;-37
2023/04/11 03:55:53;;;;;;;5.10;3.70;;;9.40;99.90;;;;;;5108736;28;20015;-37
2023/04/11 03:58:18;;;;;;;4.60;3.38;;;9.30;99.90;;;;;;5109627;27;20381;-37
2023/04/11 04:00:45;;;;;;;5.93;3.35;;;9.40;99.90;;;;;;5109722;27;20011;-38
2023/04/11 04:03:12;;;;;;;6.60;3.38;;;9.30;99.90;;;;;;5111495;27;20019;-38
2023/04/11 04:05:39;;;;;;;7.78;4.03;;;9.40;99.90;;;;;;5110100;27;20047;-38
2023/04/11 04:08:05;;;;;;;11.00;3.53;;;9.40;99.90;;;;;;5109719;27;20015;-37
2023/04/11 04:10:30;;;;;;;6.78;3.40;;;9.40;99.90;;;;;;5109745;27;20020;-37
2023/04/11 04:12:56;;;;;;;4.70;2.72;;;9.40;99.90;;;;;;5109163;27;20015;-39
2023/04/11 04:15:21;;;;;;;5.30;2.60;;;9.40;99.90;;;;;;5110399;27;20144;-37
2023/04/11 04:17:47;;;;;;;6.40;2.83;;;9.30;99.90;;;;;;5108336;28;20472;-37
2023/04/11 04:20:12;;;;;;;4.45;2.53;;;9.30;99.90;;;;;;5112085;27;20436;-37
2023/04/11 04:22:38;;;;;;;4.97;2.60;;;9.30;99.90;;;;;;5109131;28;20031;-38
2023/04/11 04:25:04;;;;;;;5.47;2.95;;;9.30;99.90;;;;;;5108524;28;20059;-39
2023/04/11 04:27:31;;;;;;;3.25;2.70;;;9.30;99.90;;;;;;5110374;28;20519;-38
2023/04/11 04:29:56;;;;;;;6.03;2.58;;;9.30;99.90;;;;;;5109725;28;20007;-38
2023/04/11 04:32:23;;;;;;;4.93;3.13;;;9.20;99.90;;;;;;5110037;28;20028;-38
2023/04/11 04:34:54;;;;;;;3.72;2.20;;;9.30;99.90;;;;;;5109896;28;20635;-38
2023/04/11 04:37:23;;;;;;;5.47;2.28;;;9.30;99.90;;;;;;5108259;28;20465;-38
2023/04/11 04:39:53;;;;;;;4.10;2.63;;;9.30;99.90;;;;;;5109640;28;20061;-38
2023/04/11 04:42:24;;;;;;;4.40;2.20;;;9.30;99.90;;;;;;5109051;28;20059;-38
2023/04/11 04:44:50;;;;;;;5.07;2.70;;;9.30;99.90;;;;;;5109957;28;20024;-38
2023/04/11 04:47:16;;;;;;;3.58;1.63;;;9.30;99.90;;;;;;5108162;28;20039;-38
2023/04/11 04:49:45;;;;;;;4.68;1.80;;;9.30;99.90;;;;;;5104186;28;20142;-37
2023/04/11 04:52:14;;;;;;;5.20;1.90;;;9.10;99.90;;;;;;5119550;28;20034;-38
2023/04/11 04:54:40;;;;;;;5.88;1.55;;;9.00;99.90;;;;;;5118423;28;20019;-38
2023/04/11 04:57:06;;;;;;;4.72;1.60;;;8.80;99.90;;;;;;5128265;28;20492;-43
2023/04/11 04:59:32;;;;;;;7.43;1.55;;;8.70;99.90;;;;;;5096726;28;20490;-38
2023/04/11 05:01:58;;;;;;;2.92;1.48;;;8.60;99.90;;;;;;5128852;27;20464;-39
2023/04/11 05:04:24;;;;;;;4.18;2.20;;;8.50;99.90;;;;;;5109709;28;20031;-38
2023/04/11 05:06:49;;;;;;;5.88;1.48;;;8.40;99.90;;;;;;5090157;28;20024;-38
2023/04/11 05:09:15;;;;;;;6.00;1.77;;;8.30;99.90;;;;;;5127345;27;20020;-38
2023/04/11 05:11:41;;;;;;;6.00;1.48;;;8.20;99.90;;;;;;5115908;28;20350;-38
2023/04/11 05:14:06;;;;;;;5.45;1.50;;;8.10;99.90;;;;;;5126029;28;20115;-37
2023/04/11 05:16:32;;;;;;;4.55;1.80;;;8.00;99.90;;;;;;5116670;28;20073;-38
2023/04/11 05:18:57;;;;;;;9.75;1.90;;;7.90;99.90;;;;;;5124209;27;20484;-38
2023/04/11 05:21:23;;;;;;;5.93;1.67;;;7.90;99.90;;;;;;5117667;27;20077;-38
2023/04/11 05:23:48;;;;;;;3.20;1.42;;;7.90;99.90;;;;;;5122540;28;20392;-37
2023/04/11 05:26:14;;;;;;;7.53;2.05;;;7.90;99.90;;;;;;5100271;28;20016;-38
2023/04/11 05:28:40;;;;;;;7.43;2.15;;;7.80;99.90;;;;;;5120313;28;20019;-38
2023/04/11 05:31:07;;;;;;;8.73;2.28;;;7.90;99.90;;;;;;5112668;28;20038;-38
2023/04/11 05:33:33;;;;;;;8.23;2.22;;;7.90;99.90;;;;;;5110903;28;20211;-38
2023/04/11 05:35:58;;;;;;;7.85;2.30;;;7.90;99.90;;;;;;5129065;28;20072;-37
2023/04/11 05:38:24;;;;;;;13.55;2.88;;;8.00;99.90;;;;;;5109435;28;20020;-38
2023/04/11 05:40:50;;;;;;;12.32;2.75;;;8.00;99.90;;;;;;5125745;27;20019;-38
2023/04/11 05:43:15;;;;;;;7.25;2.83;;;8.00;99.90;;;;;;5122034;28;20028;-38
2023/04/11 05:45:46;;;;;;;14.68;4.32;;;8.00;99.90;;;;;;5109695;28;20030;-38
2023/04/11 05:48:12;;;;;;;11.82;2.97;;;8.00;99.90;;;;;;5109948;28;20161;-38
2023/04/11 05:50:38;;;;;;;12.55;4.13;;;8.00;99.90;;;;;;5111766;28;20043;-36
2023/04/11 05:53:03;;;;;;;12.15;3.50;;;7.90;99.90;;;;;;5108804;27;20134;-37
2023/04/11 05:55:29;;;;;;;11.90;3.40;;;7.90;99.90;;;;;;5123780;27;20027;-37
2023/04/11 05:57:55;;;;;;;9.30;3.20;;;8.00;99.90;;;;;;5130094;27;20027;-38
2023/04/11 06:00:21;;;;;;;15.52;3.42;;;8.00;99.90;;;;;;5122287;27;20377;-37
2023/04/11 06:02:47;;;;;;;7.70;2.70;;;8.00;99.90;;;;;;5125650;27;20026;-38
2023/04/11 06:05:15;;;;;;;13.35;3.00;;;8.00;99.90;;;;;;5113563;27;20098;-46
2023/04/11 06:07:41;;;;;;;8.93;2.42;;;7.90;99.90;;;;;;5109900;28;20020;-46
2023/04/11 06:10:08;;;;;;;7.90;2.72;;;8.00;99.90;;;;;;5110523;28;20485;-46
2023/04/11 06:12:34;;;;;;;10.77;3.03;;;8.00;99.90;;;;;;5103930;27;20411;-46
2023/04/11 06:15:00;;;;;;;5.75;1.83;;;8.00;99.90;;;;;;5121219;27;20076;-47
2023/04/11 06:17:25;;;;;;;5.20;2.03;;;8.10;99.90;;;;;;5128459;27;20476;-46
2023/04/11 06:19:51;;;;;;;9.10;2.35;;;8.00;99.90;;;;;;5110823;28;20031;-46
2023/04/11 06:22:16;;;;;;;6.20;2.75;;;8.10;99.90;;;;;;5111495;27;20445;-47
2023/04/11 06:24:44;;;;;;;7.43;2.35;;;8.10;99.90;;;;;;5122777;27;20035;-45
2023/04/11 06:27:10;;;;;;;10.40;2.58;;;8.20;99.90;;;;;;5113576;27;20050;-45
2023/04/11 06:29:36;;;;;;;10.60;2.50;;;8.30;99.90;;;;;;5118900;27;20047;-45
2023/04/11 06:32:02;;;;;;;7.60;2.85;;;8.40;99.90;;;;;;5092172;28;20076;-46
2023/04/11 06:34:27;;;;;;;9.32;2.92;;;8.40;99.90;;;;;;5111771;27;20454;-46
2023/04/11 06:36:53;;;;;;;13.88;4.03;;;8.40;99.90;;;;;;5113500;27;20023;-46
2023/04/11 06:39:19;;;;;;;10.30;3.33;;;8.30;99.90;;;;;;5110786;28;20492;-46
2023/04/11 06:41:45;;;;;;;11.15;2.80;;;8.30;99.90;;;;;;5118215;27;20023;-46
2023/04/11 06:44:11;;;;;;;9.73;3.08;;;8.20;99.90;;;;;;5130479;27;20031;-46
2023/04/11 06:46:37;;;;;;;16.45;3.65;;;8.20;99.90;;;;;;5146728;27;20365;-46
2023/04/11 06:49:06;;;;;;;12.15;3.30;;;8.30;99.90;;;;;;5118180;27;20019;-47
2023/04/11 06:51:32;;;;;;;12.90;4.03;;;8.30;99.90;;;;;;5122126;27;20208;-46
2023/04/11 06:53:57;;;;;;;10.68;3.75;;;8.20;99.90;;;;;;5119471;27;20270;-47
2023/04/11 06:56:23;;;;;;;8.75;3.30;;;8.20;99.90;;;;;;5120412;27;20031;-48
2023/04/11 06:58:48;;;;;;;11.45;3.80;;;8.20;99.90;;;;;;5126204;27;20476;-46
2023/04/11 07:01:14;;;;;;;13.77;3.70;;;8.30;99.90;;;;;;5112649;27;20027;-45
2023/04/11 07:03:40;;;;;;;8.50;3.38;;;8.20;99.90;;;;;;5121356;27;20027;-45
2023/04/11 07:06:08;;;;;;;10.70;2.78;;;8.20;99.90;;;;;;5127871;27;20028;-48
2023/04/11 07:08:34;;;;;;;8.93;2.65;;;8.00;99.90;;;;;;5091023;28;20046;-47
2023/04/11 07:11:00;;;;;;;4.55;2.17;;;8.00;99.90;;;;;;5115792;27;20015;-47
2023/04/11 07:13:25;;;;;;;7.10;2.47;;;8.10;99.90;;;;;;5120477;27;20020;-46
2023/04/11 07:15:51;;;;;;;7.13;2.25;;;8.10;99.90;;;;;;5123909;27;20023;-47
2023/04/11 07:18:16;;;;;;;6.82;2.22;;;8.20;99.90;;;;;;5126468;27;20027;-45
2023/04/11 07:20:42;;;;;;;7.15;2.60;;;8.20;99.90;;;;;;5091613;28;20019;-45
2023/04/11 07:23:07;;;;;;;8.32;3.40;;;8.10;99.90;;;;;;5109968;28;20805;-46
2023/04/11 07:25:33;;;;;;;9.85;3.28;;;8.10;99.90;;;;;;5104429;27;20027;-46
2023/04/11 07:27:59;;;;;;;6.57;2.67;;;8.10;99.90;;;;;;5123086;27;20012;-45
2023/04/11 07:30:25;;;;;;;11.68;3.60;;;8.10;99.90;;;;;;5109453;28;20223;-45
2023/04/11 07:32:51;;;;;;;8.90;3.60;;;8.20;99.90;;;;;;5109642;28;20024;-48
2023/04/11 07:35:16;;;;;;;16.33;3.88;;;8.30;99.90;;;;;;5109649;27;20506;-46
2023/04/11 07:37:42;;;;;;;9.38;3.25;;;8.40;99.90;;;;;;5127954;27;20015;-46
2023/04/11 07:40:13;;;;;;;11.82;3.58;;;8.50;99.90;;;;;;5129453;27;20230;-45
2023/04/11 07:42:39;;;;;;;8.50;3.38;;;8.70;99.90;;;;;;5109110;27;20042;-46
2023/04/11 07:45:06;;;;;;;10.18;3.50;;;8.70;99.90;;;;;;5121281;27;20094;-47
2023/04/11 07:47:31;;;;;;;12.18;4.22;;;8.80;99.90;;;;;;5127418;27;20023;-45
2023/04/11 07:49:57;;;;;;;6.20;2.85;;;8.80;99.90;;;;;;5121355;27;20015;-45
2023/04/11 07:52:24;;;;;;;9.15;3.85;;;8.70;99.90;;;;;;5128398;27;20468;-47
2023/04/11 07:54:50;;;;;;;7.55;3.55;;;8.60;99.90;;;;;;5124582;27;20404;-46
2023/04/11 07:57:15;;;;;;;12.45;3.67;;;8.60;99.90;;;;;;5119673;27;20079;-46
2023/04/11 07:59:42;;;;;;;11.07;3.03;;;8.40;99.90;;;;;;5128851;27;20027;-46
2023/04/11 08:02:07;;;;;;;10.60;2.83;;;8.30;99.90;;;;;;5130168;27;20026;-45
2023/04/11 08:04:33;;;;;;;8.40;2.47;;;8.20;99.90;;;;;;5136058;27;20023;-38
2023/04/11 08:06:59;;;;;;;4.97;2.20;;;8.20;99.90;;;;;;5123163;27;20016;-38
2023/04/11 08:09:26;;;;;;;6.80;2.80;;;8.30;99.90;;;;;;5126219;27;20029;-38
2023/04/11 08:11:52;;;;;;;4.80;2.08;;;8.20;99.90;;;;;;5123831;27;20023;-39
2023/04/11 08:14:17;;;;;;;2.53;1.75;;;8.10;99.90;;;;;;5121742;27;20096;-38
2023/04/11 08:16:43;;;;;;;7.22;2.28;;;8.10;99.90;;;;;;5125080;27;20062;-38
2023/04/11 08:19:10;;;;;;;4.15;2.25;;;8.00;99.90;;;;;;5108919;28;20381;-38
2023/04/11 08:21:36;;;;;;;5.97;2.03;;;8.00;99.90;;;;;;5115177;27;20037;-38
2023/04/11 08:24:02;;;;;;;3.22;1.95;;;7.90;99.90;;;;;;5129023;27;20512;-47
2023/04/11 08:26:27;;;;;;;2.70;1.85;;;7.90;99.90;;;;;;5109019;28;20024;-48
2023/04/11 08:28:53;;;;;;;5.28;1.90;;;7.90;99.90;;;;;;5116441;27;20011;-48
2023/04/11 08:31:18;;;;;;;5.25;2.20;;;7.90;99.90;;;;;;5127013;27;20023;-45
2023/04/11 08:33:44;;;;;;;5.53;1.95;;;8.00;99.90;;;;;;5112289;28;20076;-46
2023/04/11 08:36:10;;;;;;;2.55;1.73;;;8.20;99.90;;;;;;5096606;28;20029;-45
2023/04/11 08:38:36;;;;;;;8.38;2.30;;;8.20;99.90;;;;;;5120178;28;20105;-45
2023/04/11 08:41:01;;;;;;;4.05;2.05;;;8.20;99.90;;;;;;5120130;28;20031;-47
2023/04/11 08:43:27;;;;;;;5.93;1.92;;;8.30;99.90;;;;;;5102810;28;20020;-46
2023/04/11 08:45:53;;;;;;;5.97;2.00;;;8.40;99.90;;;;;;5114342;28;20046;-46
2023/04/11 08:48:20;;;;;;;6.80;2.35;;;8.30;99.90;;;;;;5127012;27;20027;-45
2023/04/11 08:50:46;;;;;;;7.03;2.38;;;8.50;99.90;;;;;;5108217;28;20080;-46
2023/04/11 08:53:14;;;;;;;12.43;2.47;;;8.70;99.90;;;;;;5119592;27;20015;-45
2023/04/11 08:55:46;;;;;;;5.28;2.25;;;8.90;99.90;;;;;;5123177;28;20020;-45
2023/04/11 08:58:13;;;;;;;7.50;2.08;;;9.50;99.90;;;;;;5122372;27;20149;-45
2023/04/11 09:00:38;;;;;;;4.28;1.90;;;10.10;99.90;;;;;;5122246;27;20023;-46
2023/04/11 09:03:06;;;;;;;5.63;2.20;;;10.60;99.90;;;;;;5108149;28;20076;-46
2023/04/11 09:05:40;;;;;;;6.43;2.00;;;10.50;99.90;;;;;;5125089;27;20027;-50
2023/04/11 09:08:11;;;;;;;6.88;1.95;;;10.80;99.90;;;;;;5106972;28;20016;-46
2023/04/11 09:10:38;;;;;;;5.70;2.05;;;11.70;99.90;;;;;;5123814;28;20023;-46
2023/04/11 09:13:26;;;;;;;7.15;2.85;;;11.90;99.90;;;;;;5105542;28;20016;-46
2023/04/11 09:16:04;;;;;;;3.33;2.10;;;12.20;99.90;;;;;;5125456;27;20119;-39
2023/04/11 09:18:31;;;;;;;8.25;2.55;;;12.10;99.90;;;;;;5117058;28;20054;-38
2023/04/11 09:21:01;;;;;;;6.03;3.00;;;12.10;99.90;;;;;;5112657;28;20083;-38
2023/04/11 09:23:27;;;;;;;5.60;2.70;;;12.30;99.90;;;;;;5128734;27;20035;-39
2023/04/11 09:25:53;;;;;;;9.77;2.58;;;12.10;99.90;;;;;;5111291;28;20020;-39
2023/04/11 09:28:19;;;;;;;6.22;2.85;;;11.50;99.90;;;;;;5114741;27;20023;-39
2023/04/11 09:30:54;;;;;;;9.15;3.10;;;11.30;99.90;;;;;;5121920;27;20079;-39
2023/04/11 09:33:22;;;;;;;9.25;2.90;;;10.90;99.90;;;;;;5121402;27;20464;-46
2023/04/11 09:35:52;;;;;;;6.88;2.90;;;10.80;99.90;;;;;;5131349;27;20045;-47
2023/04/11 09:38:33;;;;;;;9.67;3.73;;;10.70;99.90;;;;;;5115153;27;20429;-39
2023/04/11 09:41:03;;;;;;;4.95;2.67;;;11.10;99.90;;;;;;5131175;27;20023;-39
2023/04/11 09:43:54;;;;;;;5.85;2.53;;;11.90;99.90;;;;;;5113909;27;20417;-39
2023/04/11 09:46:20;;;;;;;;;;;12.80;99.90;;;;;;5116581;27;20489;-39
2023/04/11 09:48:47;;;;;;;9.35;3.80;;;13.50;99.90;;;;;;5118372;27;19957;-39
2023/04/11 09:51:14;;;;;;;6.78;2.60;;;13.90;99.90;;;;;;5110808;28;20023;-39
2023/04/11 09:53:41;;;;;;;5.35;2.38;;;13.90;99.90;;;;;;5113019;27;20047;-39
2023/04/11 09:56:07;;;;;;;4.28;2.28;;;13.40;99.90;;;;;;5130547;27;20050;-39
2023/04/11 09:58:37;;;;;;;5.10;2.30;;;13.10;99.90;;;;;;5128533;27;20027;-39
2023/04/11 10:01:06;;;;;;;6.03;2.70;;;12.90;99.90;;;;;;5108648;28;20397;-39
2023/04/11 10:03:33;;;;;;;9.20;2.78;;;13.00;99.90;;;;;;5110549;28;20050;-39
2023/04/11 10:06:01;;;;;;;5.50;2.53;;;12.50;99.90;;;;;;5091571;28;20673;-39
2023/04/11 10:08:32;;;;;;;6.22;2.00;;;12.20;99.90;;;;;;5127092;27;20100;-39
2023/04/11 10:10:58;;;;;;;;;;;12.30;99.90;;;;;;5131174;27;20026;-39
2023/04/11 10:13:44;;;;;;;6.82;2.42;;;13.50;99.90;;;;;;5112598;27;19987;-46
2023/04/11 10:16:13;;;;;;;10.70;2.72;;;13.40;99.90;;;;;;5111724;27;20023;-39
2023/04/11 10:18:51;;;;;;;6.05;2.15;;;12.90;99.90;;;;;;5109282;28;20309;-39
2023/04/11 10:21:29;;;;;;;5.18;1.70;;;13.50;99.90;;;;;;5125334;27;20015;-39
2023/04/11 10:24:14;;;;;;;4.47;1.60;;;13.70;99.90;;;;;;5126520;27;20495;-39
2023/04/11 10:26:58;;;;;;;2.50;1.50;;;14.70;99.90;;;;;;5128338;27;20104;-39
2023/04/11 10:32:11;;;;;;;3.42;1.30;;;17.10;96.20;;;;;;5123247;27;20353;-40
2023/04/11 10:34:38;;;;;;;3.97;1.83;;;16.10;94.00;;;;;;5128626;27;20027;-40
2023/04/11 10:37:08;;;;;;;3.20;1.35;;;15.60;95.90;;;;;;5124483;27;20024;-40
2023/04/11 10:39:49;;;;;;;2.03;1.50;;;15.60;96.40;;;;;;5112151;27;20102;-40
2023/04/11 10:42:33;;;;;;;2.58;1.80;;;15.00;96.10;;;;;;5107852;27;20034;-39
2023/04/11 10:45:18;;;;;;;2.88;1.15;;;14.30;97.80;;;;;;5089080;28;20023;-38
2023/04/11 10:48:13;;;;;;;3.78;1.10;;;12.80;99.90;;;;;;5090670;28;20073;-38
2023/04/11 10:50:41;;;;;;;2.38;1.27;;;11.70;99.90;;;;;;5105956;27;20043;-38
2023/04/11 10:53:13;;;;;;;5.03;1.85;;;10.80;99.90;;;;;;5110435;27;20413;-39
2023/04/11 10:55:49;;;;;;;4.55;1.90;;;10.30;99.90;;;;;;5110055;27;20016;-39
2023/04/11 10:58:20;;;;;;;8.30;1.45;;;9.90;99.90;;;;;;5110385;27;20092;-38
2023/04/11 11:00:46;;;;;;;5.68;1.60;;;9.70;99.90;;;;;;5106726;28;20099;-48
2023/04/11 11:03:15;;;;;;;4.63;1.50;;;9.40;99.90;;;;;;5129877;27;20107;-47
2023/04/11 11:05:41;;;;;;;3.65;1.75;;;9.60;99.90;;;;;;5118247;27;20032;-46
2023/04/11 11:08:07;;;;;;;6.00;2.13;;;10.30;99.90;;;;;;5114323;27;20779;-38
2023/04/11 11:10:46;;;;;;;1.63;1.33;;;11.70;99.90;;;;;;5129380;27;20569;-39
2023/04/11 11:13:15;;;;;;;3.83;1.75;;;14.10;99.90;;;;;;5114500;27;20451;-39
2023/04/11 11:15:47;;;;;;;5.95;1.80;;;16.00;99.90;;;;;;5124784;27;20609;-39
2023/04/11 11:18:14;;;;;;;1.88;1.33;;;17.70;99.70;;;;;;5129108;27;20046;-40
2023/04/11 11:20:40;;;;;;;5.35;1.50;;;18.70;95.70;;;;;;5128182;27;20027;-39
2023/04/11 11:23:10;;;;;;;3.05;1.50;;;19.80;94.30;;;;;;5111887;27;20119;-48
2023/04/11 11:25:36;;;;;;;6.60;1.77;;;21.10;86.10;;;;;;5109142;27;20023;-47
2023/04/11 11:28:03;;;;;;;3.67;1.60;;;21.60;83.10;;;;;;5105696;27;20449;-46
2023/04/11 11:30:29;;;;;;;2.75;1.30;;;20.80;75.90;;;;;;5111139;27;20007;-46
2023/04/11 11:32:55;;;;;;;3.55;1.40;;;20.70;80.00;;;;;;5129055;27;20110;-46
2023/04/11 11:35:22;;;;;;;3.60;1.27;;;20.90;77.30;;;;;;5099300;27;20039;-46
2023/04/11 11:37:51;;;;;;;4.43;1.60;;;20.90;80.90;;;;;;5122150;27;20114;-47
2023/04/11 11:40:20;;;;;;;6.15;1.73;;;21.10;76.90;;;;;;5113862;27;20027;-46
2023/04/11 11:42:47;;;;;;;3.55;1.77;;;20.70;70.70;;;;;;5109665;27;20027;-46
2023/04/11 11:45:14;;;;;;;6.40;1.77;;;21.00;72.00;;;;;;5104168;28;20020;-46
2023/04/11 11:47:44;;;;;;;4.38;1.88;;;20.60;70.30;;;;;;5123258;27;20015;-47
2023/04/11 11:50:10;;;;;;;3.92;1.60;;;20.60;73.40;;;;;;5123194;27;20396;-49
2023/04/11 11:52:40;;;;;;;5.90;1.83;;;20.60;69.00;;;;;;5119984;27;20098;-46
2023/04/11 11:55:17;;;;;;;4.20;1.88;;;20.00;69.20;;;;;;5109861;28;20024;-47
2023/04/11 11:57:47;;;;;;;5.20;1.75;;;18.40;71.90;;;;;;5113212;27;20023;-46
2023/04/11 12:00:14;;;;;;;5.68;1.58;;;18.30;75.40;;;;;;5117287;27;20354;-47
2023/04/11 12:02:43;;;;;;;5.47;2.15;;;17.40;75.10;;;;;;5108669;27;20023;-45
2023/04/11 12:05:10;;;;;;;4.60;2.10;;;17.20;78.90;;;;;;5129914;27;20023;-45
2023/04/11 12:07:37;;;;;;;4.68;2.15;;;16.30;79.40;;;;;;5114009;27;20024;-45
2023/04/11 12:10:07;;;;;;;6.65;2.15;;;15.80;81.00;;;;;;5125009;27;20098;-48
2023/04/11 12:12:37;;;;;;;5.47;1.70;;;14.90;82.50;;;;;;5113196;27;20016;-45
2023/04/11 12:15:12;;;;;;;3.88;1.48;;;14.00;84.30;;;;;;5145064;27;20016;-45
2023/04/11 12:17:38;;;;;;;2.47;1.50;;;13.00;87.30;;;;;;5119085;27;20035;-45
2023/04/11 12:20:09;;;;;;;4.82;1.70;;;12.30;90.20;;;;;;5092076;28;20027;-45
2023/04/11 12:22:35;;;;;;;3.42;1.45;;;11.70;92.90;;;;;;5126027;27;20108;-45
2023/04/11 12:25:05;;;;;;;4.20;1.50;;;11.50;93.50;;;;;;5093146;27;20062;-45
2023/04/11 12:27:32;;;;;;;2.90;1.77;;;11.40;96.40;;;;;;5122519;27;20023;-45
2023/04/11 12:29:57;;;;;;;4.75;1.45;;;11.70;97.60;;;;;;5106987;28;20023;-46
2023/04/11 12:32:23;;;;;;;3.97;1.40;;;12.10;97.10;;;;;;5109023;28;20019;-45
2023/04/11 12:34:49;;;;;;;2.22;1.23;;;12.50;95.60;;;;;;5090640;28;20541;-46
2023/04/11 12:37:14;;;;;;;3.97;1.38;;;13.00;94.50;;;;;;5108973;28;20040;-49
2023/04/11 12:39:41;;;;;;;4.70;1.30;;;13.40;95.10;;;;;;5125769;28;20031;-47
2023/04/11 12:42:06;;;;;;;4.72;1.60;;;14.00;94.40;;;;;;5123576;27;20012;-48
2023/04/11 12:44:32;;;;;;;7.75;2.42;;;14.60;94.20;;;;;;5108522;28;20545;-47
2023/04/11 12:46:57;;;;;;;3.58;1.50;;;14.80;91.90;;;;;;5110129;28;20051;-47
2023/04/11 12:49:23;;;;;;;4.20;1.88;;;15.20;91.30;;;;;;5106379;28;20019;-46
2023/04/11 12:51:48;;;;;;;5.03;1.70;;;15.10;93.10;;;;;;5109080;28;20099;-46
2023/04/11 12:54:14;;;;;;;7.50;1.73;;;15.30;88.60;;;;;;5108849;28;20469;-46